Time;durP1;ratioP1;P1;durP2;ratioP2;P2;SDS_P1;SDS_P2;PMS_P1;PMS_P2;Temp;Humidity;BMP_temperature;BMP_pressure;BME280_temperature;BME280_humidity;BME280_pressure;Samples;Min_cycle;Max_cycle;Signal;HPM_P1;HPM_P2
2022/06/05 00:00:22;;;;;;;10.23;5.40;;;;;;;;;;5322767;28;20028;-72
2022/06/05 00:03:05;;;;;;;8.27;4.60;;;;;;;;;;5323978;28;20331;-72
2022/06/05 00:05:45;;;;;;;9.05;4.43;;;;;;;;;;5324033;28;20447;-70
2022/06/05 00:08:21;;;;;;;9.23;4.40;;;;;;;;;;5323093;28;20049;-72
2022/06/05 00:10:54;;;;;;;5.75;3.83;;;;;;;;;;5324126;28;20019;-72
2022/06/05 00:13:32;;;;;;;6.65;3.90;;;;;;;;;;5323578;28;20027;-73
2022/06/05 00:16:04;;;;;;;4.77;3.87;;;;;;;;;;5322985;28;20048;-72
2022/06/05 00:18:37;;;;;;;8.48;3.53;;;;;;;;;;5323380;28;20039;-72
2022/06/05 00:21:08;;;;;;;5.18;4.22;;;;;;;;;;5322650;28;20533;-72
2022/06/05 00:23:40;;;;;;;4.85;4.25;;;;;;;;;;5323586;28;20020;-72
2022/06/05 00:26:16;;;;;;;9.27;3.47;;;;;;;;;;5323776;28;20031;-73
2022/06/05 00:28:56;;;;;;;4.47;3.67;;;;;;;;;;5322986;28;20498;-73
2022/06/05 00:31:33;;;;;;;6.07;3.60;;;;;;;;;;5323265;28;20024;-73
2022/06/05 00:34:04;;;;;;;4.38;3.53;;;;;;;;;;5323364;28;20023;-73
2022/06/05 00:37:01;;;;;;;5.43;3.60;;;;;;;;;;5322817;28;20462;-72
2022/06/05 00:39:41;;;;;;;4.25;3.85;;;;;;;;;;5323479;28;20260;-72
2022/06/05 00:42:16;;;;;;;4.78;3.33;;;;;;;;;;5322789;28;20466;-72
2022/06/05 00:44:50;;;;;;;6.30;3.60;;;;;;;;;;5325882;28;20060;-73
2022/06/05 00:47:26;;;;;;;5.88;3.65;;;;;;;;;;5327453;28;20027;-72
2022/06/05 00:49:59;;;;;;;4.25;3.20;;;;;;;;;;5327135;28;20441;-72
2022/06/05 00:52:31;;;;;;;6.20;3.80;;;;;;;;;;5326361;28;20028;-72
2022/06/05 00:55:04;;;;;;;4.68;3.17;;;;;;;;;;5327665;28;20041;-72
2022/06/05 00:57:36;;;;;;;4.38;3.40;;;;;;;;;;5326508;28;20023;-72
2022/06/05 01:00:10;;;;;;;3.53;3.15;;;;;;;;;;5327513;28;20454;-72
2022/06/05 01:02:43;;;;;;;3.75;3.45;;;;;;;;;;5327196;28;20027;-71
2022/06/05 01:05:15;;;;;;;6.07;3.35;;;;;;;;;;5326561;28;20047;-71
2022/06/05 01:07:46;;;;;;;6.47;3.10;;;;;;;;;;5327086;28;20020;-71
2022/06/05 01:10:19;;;;;;;4.55;2.80;;;;;;;;;;5326651;28;20080;-71
2022/06/05 01:12:59;;;;;;;4.97;3.47;;;;;;;;;;5327185;28;20051;-71
2022/06/05 01:15:40;;;;;;;3.13;2.83;;;;;;;;;;5326649;28;20107;-70
2022/06/05 01:18:17;;;;;;;5.95;3.10;;;;;;;;;;5326363;28;20027;-71
2022/06/05 01:21:14;;;;;;;2.88;2.35;;;;;;;;;;5326906;28;20022;-71
2022/06/05 01:23:51;;;;;;;4.65;2.78;;;;;;;;;;5295214;28;20455;-71
2022/06/05 01:26:37;;;;;;;5.45;3.03;;;;;;;;;;5325523;28;20016;-71
2022/06/05 01:29:11;;;;;;;3.85;2.60;;;;;;;;;;5326692;28;20019;-71
2022/06/05 01:31:50;;;;;;;3.92;2.78;;;;;;;;;;5325940;28;20458;-71
2022/06/05 01:34:23;;;;;;;5.55;2.53;;;;;;;;;;5326165;28;20068;-71
2022/06/05 01:37:01;;;;;;;4.22;2.83;;;;;;;;;;5326712;28;20065;-71
2022/06/05 01:39:38;;;;;;;3.70;3.05;;;;;;;;;;5325736;28;20462;-71
2022/06/05 01:42:19;;;;;;;4.53;2.70;;;;;;;;;;5326198;28;20059;-71
2022/06/05 01:44:54;;;;;;;4.10;2.78;;;;;;;;;;5326471;28;20018;-71
2022/06/05 01:47:27;;;;;;;4.82;3.00;;;;;;;;;;5325346;28;20024;-71
2022/06/05 01:50:11;;;;;;;5.25;2.80;;;;;;;;;;5326511;28;20343;-71
2022/06/05 01:52:49;;;;;;;3.05;2.55;;;;;;;;;;5325613;28;20034;-71
2022/06/05 01:55:20;;;;;;;4.38;3.45;;;;;;;;;;5325247;28;20474;-71
2022/06/05 01:57:52;;;;;;;5.32;2.90;;;;;;;;;;5326701;28;20034;-71
2022/06/05 02:00:23;;;;;;;3.95;2.97;;;;;;;;;;5324953;28;20020;-71
2022/06/05 02:03:17;;;;;;;3.95;2.47;;;;;;;;;;5326409;28;20364;-71
2022/06/05 02:05:53;;;;;;;6.65;3.33;;;;;;;;;;5325732;28;20016;-71
2022/06/05 02:08:36;;;;;;;3.15;2.85;;;;;;;;;;5324810;28;20176;-71
2022/06/05 02:11:13;;;;;;;3.80;3.20;;;;;;;;;;5325878;28;20024;-71
2022/06/05 02:13:44;;;;;;;6.93;4.28;;;;;;;;;;5325051;28;20402;-71
2022/06/05 02:16:16;;;;;;;6.32;3.75;;;;;;;;;;5325324;28;20048;-71
2022/06/05 02:18:47;;;;;;;6.40;3.65;;;;;;;;;;5325784;28;20141;-71
2022/06/05 02:21:19;;;;;;;4.53;4.07;;;;;;;;;;5324519;28;20114;-71
2022/06/05 02:23:50;;;;;;;4.60;4.00;;;;;;;;;;5325829;28;20024;-71
2022/06/05 02:26:21;;;;;;;4.80;4.40;;;;;;;;;;5325274;28;20019;-71
2022/06/05 02:28:52;;;;;;;4.83;4.23;;;;;;;;;;5325080;28;20022;-71
2022/06/05 02:31:40;;;;;;;4.10;3.75;;;;;;;;;;5325513;28;20265;-71
2022/06/05 02:34:34;;;;;;;7.05;4.72;;;;;;;;;;5325449;28;20474;-71
2022/06/05 02:37:13;;;;;;;4.97;4.57;;;;;;;;;;5325359;28;20020;-71
2022/06/05 02:40:03;;;;;;;6.03;5.32;;;;;;;;;;5325487;28;20030;-71
2022/06/05 02:42:46;;;;;;;6.93;5.25;;;;;;;;;;5324362;28;20118;-71
2022/06/05 02:45:24;;;;;;;8.68;5.18;;;;;;;;;;5325099;28;20023;-71
2022/06/05 02:48:05;;;;;;;5.82;5.15;;;;;;;;;;5325605;28;20432;-70
2022/06/05 02:50:44;;;;;;;6.28;5.70;;;;;;;;;;5324441;28;20518;-70
2022/06/05 02:53:16;;;;;;;6.25;4.90;;;;;;;;;;5324838;28;20096;-71
2022/06/05 02:55:47;;;;;;;6.88;5.25;;;;;;;;;;5324247;28;20024;-71
2022/06/05 02:58:18;;;;;;;7.87;4.93;;;;;;;;;;5324899;28;20348;-70
2022/06/05 03:03:39;;;;;;;5.20;4.70;;;;;;;;;;5324400;28;20032;-71
2022/06/05 03:06:10;;;;;;;5.43;4.97;;;;;;;;;;5324606;28;20015;-71
2022/06/05 03:08:42;;;;;;;6.93;5.07;;;;;;;;;;5323503;28;20314;-71
2022/06/05 03:11:13;;;;;;;5.80;5.18;;;;;;;;;;5323804;28;20751;-71
2022/06/05 03:13:44;;;;;;;6.45;5.22;;;;;;;;;;5324609;28;20813;-71
2022/06/05 03:16:15;;;;;;;10.50;5.10;;;;;;;;;;5324721;28;20047;-71
2022/06/05 03:18:46;;;;;;;7.38;4.88;;;;;;;;;;5323566;28;20276;-71
2022/06/05 03:21:18;;;;;;;6.90;5.00;;;;;;;;;;5324265;28;20016;-70
2022/06/05 03:23:49;;;;;;;8.30;5.00;;;;;;;;;;5323906;28;20032;-71
2022/06/05 03:26:20;;;;;;;5.23;4.73;;;;;;;;;;5324113;28;20019;-71
2022/06/05 03:28:51;;;;;;;7.50;5.45;;;;;;;;;;5324507;28;20759;-71
2022/06/05 03:31:23;;;;;;;4.95;4.18;;;;;;;;;;5322978;28;20019;-71
2022/06/05 03:33:54;;;;;;;6.10;4.82;;;;;;;;;;5324590;28;20011;-71
2022/06/05 03:36:25;;;;;;;10.18;6.50;;;;;;;;;;5323848;28;20016;-71
2022/06/05 03:38:58;;;;;;;5.63;4.83;;;;;;;;;;5323737;28;20084;-71
2022/06/05 03:41:29;;;;;;;7.85;5.25;;;;;;;;;;5323751;28;20289;-71
2022/06/05 03:44:00;;;;;;;8.50;5.70;;;;;;;;;;5324063;28;20026;-71
2022/06/05 03:46:33;;;;;;;11.27;5.23;;;;;;;;;;5323145;28;20019;-71
2022/06/05 03:49:05;;;;;;;6.68;5.28;;;;;;;;;;5324171;28;20264;-71
2022/06/05 03:51:36;;;;;;;7.50;5.05;;;;;;;;;;5323910;28;20019;-72
2022/06/05 03:54:08;;;;;;;6.80;5.47;;;;;;;;;;5323205;28;20016;-72
2022/06/05 03:56:39;;;;;;;7.22;5.40;;;;;;;;;;5323935;28;20023;-72
2022/06/05 03:59:11;;;;;;;8.20;5.07;;;;;;;;;;5323230;28;20377;-72
2022/06/05 04:01:42;;;;;;;5.43;4.93;;;;;;;;;;5323681;28;20035;-71
2022/06/05 04:04:13;;;;;;;6.10;5.32;;;;;;;;;;5324102;28;20019;-71
2022/06/05 04:06:44;;;;;;;9.90;5.85;;;;;;;;;;5322878;28;20153;-72
2022/06/05 04:09:15;;;;;;;8.60;5.07;;;;;;;;;;5323567;28;20265;-71
2022/06/05 04:11:46;;;;;;;7.63;4.67;;;;;;;;;;5323670;28;20340;-72
2022/06/05 04:14:18;;;;;;;8.38;5.30;;;;;;;;;;5322946;28;20720;-71
2022/06/05 04:16:49;;;;;;;9.73;5.43;;;;;;;;;;5323600;28;20044;-71
2022/06/05 04:19:20;;;;;;;6.88;5.30;;;;;;;;;;5322902;28;20018;-71
2022/06/05 04:21:51;;;;;;;5.40;4.90;;;;;;;;;;5323278;28;20031;-72
2022/06/05 04:24:22;;;;;;;6.40;5.22;;;;;;;;;;5323810;28;20008;-71
2022/06/05 04:26:54;;;;;;;8.75;5.57;;;;;;;;;;5323874;28;20028;-71
2022/06/05 04:29:25;;;;;;;8.63;5.20;;;;;;;;;;5322325;28;20051;-71
2022/06/05 04:31:56;;;;;;;9.37;6.07;;;;;;;;;;5323975;28;20313;-71
2022/06/05 04:34:27;;;;;;;6.05;5.00;;;;;;;;;;5322515;28;20261;-72
2022/06/05 04:36:58;;;;;;;6.50;5.55;;;;;;;;;;5323756;28;20100;-72
2022/06/05 04:39:30;;;;;;;7.25;5.07;;;;;;;;;;5323036;28;20023;-71
2022/06/05 04:42:01;;;;;;;8.93;5.32;;;;;;;;;;5322527;28;20386;-71
2022/06/05 04:44:32;;;;;;;8.63;6.00;;;;;;;;;;5323321;28;20094;-71
2022/06/05 04:47:04;;;;;;;8.80;5.13;;;;;;;;;;5323459;28;20069;-71
2022/06/05 04:49:35;;;;;;;7.25;4.88;;;;;;;;;;5322338;28;20265;-71
2022/06/05 04:52:06;;;;;;;7.30;4.90;;;;;;;;;;5323149;28;20379;-71
2022/06/05 04:54:37;;;;;;;6.78;4.80;;;;;;;;;;5323268;28;20462;-71
2022/06/05 04:57:09;;;;;;;7.90;5.20;;;;;;;;;;5322725;28;20398;-71
2022/06/05 04:59:40;;;;;;;10.57;5.30;;;;;;;;;;5323444;28;20287;-71
2022/06/05 05:02:11;;;;;;;10.32;6.30;;;;;;;;;;5322792;28;20024;-71
2022/06/05 05:04:42;;;;;;;7.68;5.40;;;;;;;;;;5322476;28;20044;-71
2022/06/05 05:07:14;;;;;;;5.93;5.28;;;;;;;;;;5322954;28;20470;-72
2022/06/05 05:09:45;;;;;;;6.70;5.57;;;;;;;;;;5322439;28;20020;-71
2022/06/05 05:12:18;;;;;;;9.07;5.73;;;;;;;;;;5323296;28;20040;-72
2022/06/05 05:14:49;;;;;;;6.43;5.80;;;;;;;;;;5323243;28;20732;-72
2022/06/05 05:17:20;;;;;;;7.37;6.53;;;;;;;;;;5321595;28;20054;-72
2022/06/05 05:19:51;;;;;;;6.03;4.95;;;;;;;;;;5323052;28;20273;-71
2022/06/05 05:22:22;;;;;;;5.78;4.85;;;;;;;;;;5322624;28;20500;-70
2022/06/05 05:24:54;;;;;;;8.15;5.60;;;;;;;;;;5322640;28;20020;-71
2022/06/05 05:27:25;;;;;;;7.73;5.03;;;;;;;;;;5322600;28;20280;-71
2022/06/05 05:29:56;;;;;;;6.27;5.53;;;;;;;;;;5323131;28;20253;-71
2022/06/05 05:32:28;;;;;;;8.77;5.93;;;;;;;;;;5325188;28;20277;-71
2022/06/05 05:34:59;;;;;;;5.75;4.97;;;;;;;;;;5327207;28;20455;-71
2022/06/05 05:37:30;;;;;;;8.50;5.70;;;;;;;;;;5325522;28;20085;-71
2022/06/05 05:42:51;;;;;;;5.57;4.95;;;;;;;;;;5326758;28;20313;-71
2022/06/05 05:45:22;;;;;;;7.40;5.20;;;;;;;;;;5325625;28;20016;-71
2022/06/05 05:47:53;;;;;;;6.15;5.15;;;;;;;;;;5326859;28;20280;-71
2022/06/05 05:50:25;;;;;;;6.53;4.75;;;;;;;;;;5325951;28;20027;-72
2022/06/05 05:52:56;;;;;;;7.23;4.70;;;;;;;;;;5325843;28;20474;-72
2022/06/05 05:55:27;;;;;;;6.20;4.73;;;;;;;;;;5326213;28;20276;-71
2022/06/05 05:57:58;;;;;;;8.33;5.53;;;;;;;;;;5326832;28;20277;-71
2022/06/05 06:00:29;;;;;;;7.93;5.25;;;;;;;;;;5325206;28;20300;-71
2022/06/05 06:03:01;;;;;;;6.10;5.03;;;;;;;;;;5326174;28;20136;-71
2022/06/05 06:05:32;;;;;;;5.93;5.33;;;;;;;;;;5325062;28;20308;-71
2022/06/05 06:08:03;;;;;;;5.75;5.00;;;;;;;;;;5326203;28;20262;-71
2022/06/05 06:10:35;;;;;;;7.60;4.47;;;;;;;;;;5326050;28;20054;-71
2022/06/05 06:13:06;;;;;;;5.43;4.90;;;;;;;;;;5325207;28;20446;-72
2022/06/05 06:15:37;;;;;;;7.45;5.05;;;;;;;;;;5325636;28;20432;-69
2022/06/05 06:18:08;;;;;;;8.63;5.70;;;;;;;;;;5325661;28;20535;-70
2022/06/05 06:20:39;;;;;;;6.05;4.68;;;;;;;;;;5324974;28;20685;-70
2022/06/05 06:23:11;;;;;;;7.68;5.00;;;;;;;;;;5325689;28;20035;-72
2022/06/05 06:25:42;;;;;;;6.70;4.77;;;;;;;;;;5325911;28;20265;-71
2022/06/05 06:28:13;;;;;;;6.32;4.60;;;;;;;;;;5324746;28;20273;-71
2022/06/05 06:30:45;;;;;;;5.80;5.20;;;;;;;;;;5325535;28;20473;-70
2022/06/05 06:33:16;;;;;;;5.85;4.75;;;;;;;;;;5325582;28;20631;-71
2022/06/05 06:35:48;;;;;;;7.97;5.67;;;;;;;;;;5324788;28;20072;-70
2022/06/05 06:38:19;;;;;;;7.15;5.38;;;;;;;;;;5324913;28;20376;-72
2022/06/05 06:40:57;;;;;;;6.57;5.55;;;;;;;;;;5324766;28;20035;-71
2022/06/05 06:43:28;;;;;;;5.88;5.22;;;;;;;;;;5324983;28;20681;-72
2022/06/05 06:46:00;;;;;;;7.07;5.72;;;;;;;;;;5325667;28;20060;-70
2022/06/05 06:48:31;;;;;;;6.85;5.28;;;;;;;;;;5324295;28;20027;-71
2022/06/05 06:51:04;;;;;;;6.03;5.53;;;;;;;;;;5325260;28;20399;-71
2022/06/05 06:53:36;;;;;;;7.10;5.88;;;;;;;;;;5324986;28;20136;-71
2022/06/05 06:56:12;;;;;;;7.15;5.43;;;;;;;;;;5324485;28;20012;-71
2022/06/05 06:58:44;;;;;;;8.80;5.63;;;;;;;;;;5325110;28;20099;-71
2022/06/05 07:01:15;;;;;;;6.53;5.70;;;;;;;;;;5324863;28;20534;-71
2022/06/05 07:03:46;;;;;;;7.85;5.70;;;;;;;;;;5324076;27;20463;-71
2022/06/05 07:06:20;;;;;;;5.10;4.60;;;;;;;;;;5324748;28;20020;-71
2022/06/05 07:08:51;;;;;;;8.10;5.60;;;;;;;;;;5324419;28;20805;-71
2022/06/05 07:11:23;;;;;;;6.30;5.72;;;;;;;;;;5324463;28;20015;-72
2022/06/05 07:13:56;;;;;;;5.63;5.05;;;;;;;;;;5324923;28;20020;-71
2022/06/05 07:16:27;;;;;;;6.25;5.72;;;;;;;;;;5323390;28;20398;-72
2022/06/05 07:18:58;;;;;;;8.70;6.20;;;;;;;;;;5325126;28;20020;-72
2022/06/05 07:21:29;;;;;;;5.65;5.25;;;;;;;;;;5324262;28;20281;-72
2022/06/05 07:24:01;;;;;;;6.95;5.30;;;;;;;;;;5323966;28;20062;-71
2022/06/05 07:26:32;;;;;;;5.47;4.97;;;;;;;;;;5324333;28;20069;-71
2022/06/05 07:29:04;;;;;;;8.55;5.07;;;;;;;;;;5324412;28;20094;-71
2022/06/05 07:31:35;;;;;;;10.52;4.85;;;;;;;;;;5323305;28;20026;-72
2022/06/05 07:34:08;;;;;;;6.88;4.78;;;;;;;;;;5323784;28;20482;-72
2022/06/05 07:36:39;;;;;;;5.65;5.15;;;;;;;;;;5324152;28;20258;-71
2022/06/05 07:39:11;;;;;;;8.73;4.90;;;;;;;;;;5323352;28;20023;-72
2022/06/05 07:41:42;;;;;;;5.10;4.55;;;;;;;;;;5324194;28;20771;-71
2022/06/05 07:44:13;;;;;;;7.25;4.93;;;;;;;;;;5323166;28;20012;-71
2022/06/05 07:46:44;;;;;;;6.67;5.93;;;;;;;;;;5324135;28;20421;-71
2022/06/05 07:49:15;;;;;;;8.70;4.77;;;;;;;;;;5324212;28;20268;-71
2022/06/05 07:54:37;;;;;;;10.35;4.93;;;;;;;;;;5323453;28;20289;-71
2022/06/05 07:57:12;;;;;;;5.70;5.20;;;;;;;;;;5324061;28;20470;-72
2022/06/05 07:59:45;;;;;;;5.55;4.95;;;;;;;;;;5323097;28;20035;-71
2022/06/05 08:02:19;;;;;;;8.30;5.47;;;;;;;;;;5323426;28;20363;-71
2022/06/05 08:04:51;;;;;;;8.45;5.43;;;;;;;;;;5324181;28;20088;-71
2022/06/05 08:07:26;;;;;;;5.43;4.75;;;;;;;;;;5322769;28;20144;-72
2022/06/05 08:09:58;;;;;;;6.28;5.53;;;;;;;;;;5323885;28;20023;-72
2022/06/05 08:12:31;;;;;;;6.03;5.50;;;;;;;;;;5322758;28;20011;-71
2022/06/05 08:15:08;;;;;;;6.18;4.97;;;;;;;;;;5323505;28;20027;-72
2022/06/05 08:17:40;;;;;;;6.18;5.65;;;;;;;;;;5323189;28;20047;-73
2022/06/05 08:20:12;;;;;;;8.48;5.53;;;;;;;;;;5322726;28;20026;-72
2022/06/05 08:22:43;;;;;;;6.18;5.57;;;;;;;;;;5323500;28;20462;-74
2022/06/05 08:25:14;;;;;;;6.55;5.65;;;;;;;;;;5323382;28;20008;-74
2022/06/05 08:27:46;;;;;;;6.20;5.70;;;;;;;;;;5322955;28;20068;-74
2022/06/05 08:30:17;;;;;;;6.88;6.07;;;;;;;;;;5323370;28;20020;-75
2022/06/05 08:32:48;;;;;;;8.00;5.45;;;;;;;;;;5323369;28;20020;-74
2022/06/05 08:35:19;;;;;;;5.77;5.33;;;;;;;;;;5322152;28;20018;-74
2022/06/05 08:43:33;;;;;;;5.40;4.90;;;;;;;;;;5323508;28;20032;-75
2022/06/05 08:46:09;;;;;;;6.50;5.90;;;;;;;;;;5323369;28;20020;-74
2022/06/05 08:48:53;;;;;;;6.15;5.30;;;;;;;;;;5322689;28;20113;-74
2022/06/05 08:51:24;;;;;;;7.07;5.35;;;;;;;;;;5322824;28;20011;-75
2022/06/05 08:53:57;;;;;;;11.27;5.27;;;;;;;;;;5323616;28;20493;-74
2022/06/05 08:56:31;;;;;;;6.35;5.50;;;;;;;;;;5322440;28;20740;-75
2022/06/05 08:59:15;;;;;;;7.57;6.30;;;;;;;;;;5323393;28;20011;-75
2022/06/05 09:01:58;;;;;;;6.30;5.70;;;;;;;;;;5322185;28;20059;-75
2022/06/05 09:04:35;;;;;;;7.95;5.78;;;;;;;;;;5322723;28;20450;-75
2022/06/05 09:07:10;;;;;;;7.13;6.53;;;;;;;;;;5326022;28;20019;-75
2022/06/05 09:09:50;;;;;;;7.15;6.30;;;;;;;;;;5326511;28;20023;-75
2022/06/05 09:12:42;;;;;;;7.35;6.65;;;;;;;;;;5326918;28;20482;-75
2022/06/05 09:15:21;;;;;;;7.20;6.50;;;;;;;;;;5326446;28;20462;-76
2022/06/05 09:17:54;;;;;;;6.82;6.20;;;;;;;;;;5326282;28;20055;-74
2022/06/05 09:20:45;;;;;;;7.25;6.57;;;;;;;;;;5326683;28;20019;-73
2022/06/05 09:23:20;;;;;;;8.63;6.68;;;;;;;;;;5325063;28;20039;-74
2022/06/05 09:26:00;;;;;;;6.82;6.22;;;;;;;;;;5327101;28;20441;-73
2022/06/05 09:28:47;;;;;;;7.40;6.70;;;;;;;;;;5326664;28;20388;-74
2022/06/05 09:31:21;;;;;;;7.90;7.10;;;;;;;;;;5325699;28;20102;-76
2022/06/05 09:33:54;;;;;;;7.97;6.82;;;;;;;;;;5326801;28;20092;-74
2022/06/05 09:36:27;;;;;;;9.90;6.80;;;;;;;;;;5326334;28;20024;-70
2022/06/05 09:39:01;;;;;;;7.75;6.88;;;;;;;;;;5326039;28;20055;-70
2022/06/05 09:41:49;;;;;;;9.27;5.97;;;;;;;;;;5326299;28;20040;-71
2022/06/05 09:44:23;;;;;;;8.32;6.55;;;;;;;;;;5324044;27;20019;-71
2022/06/05 09:46:59;;;;;;;9.20;6.13;;;;;;;;;;5347332;27;20023;-71
2022/06/05 09:49:45;;;;;;;7.30;6.20;;;;;;;;;;5347044;27;20023;-71
2022/06/05 09:52:18;;;;;;;7.32;6.63;;;;;;;;;;5346190;27;20037;-71
2022/06/05 09:55:13;;;;;;;7.15;6.00;;;;;;;;;;5347705;27;20011;-71
2022/06/05 10:00:57;;;;;;;7.57;6.75;;;;;;;;;;5347412;27;20035;-71
2022/06/05 10:03:32;;;;;;;7.10;6.43;;;;;;;;;;5346388;27;20099;-70
2022/06/05 10:06:03;;;;;;;8.05;7.20;;;;;;;;;;5346450;27;20114;-70
2022/06/05 10:08:41;;;;;;;7.53;6.70;;;;;;;;;;5346468;27;20385;-70
2022/06/05 10:11:30;;;;;;;7.30;6.70;;;;;;;;;;5346991;27;20108;-70
2022/06/05 10:14:01;;;;;;;8.13;7.30;;;;;;;;;;5346585;27;20019;-72
2022/06/05 10:16:45;;;;;;;7.13;6.53;;;;;;;;;;5346029;27;20065;-70
2022/06/05 10:19:16;;;;;;;9.15;7.95;;;;;;;;;;5346371;27;20272;-69
2022/06/05 10:21:51;;;;;;;8.32;7.35;;;;;;;;;;5346745;27;20374;-69
2022/06/05 10:24:25;;;;;;;8.90;7.18;;;;;;;;;;5346509;27;20011;-70
2022/06/05 10:26:59;;;;;;;8.88;7.97;;;;;;;;;;5346625;27;20131;-70
2022/06/05 10:29:50;;;;;;;9.20;7.90;;;;;;;;;;5346539;27;20011;-70
2022/06/05 10:32:21;;;;;;;9.45;7.20;;;;;;;;;;5346626;27;20093;-69
2022/06/05 10:34:56;;;;;;;8.20;7.50;;;;;;;;;;5346401;27;20098;-69
2022/06/05 10:37:44;;;;;;;8.77;7.95;;;;;;;;;;5346418;27;20015;-69
2022/06/05 10:40:21;;;;;;;8.93;8.07;;;;;;;;;;5345762;27;20015;-70
2022/06/05 10:43:13;;;;;;;8.27;7.63;;;;;;;;;;5346981;27;20080;-70
2022/06/05 10:46:06;;;;;;;9.48;8.38;;;;;;;;;;5346567;27;20500;-69
2022/06/05 10:48:46;;;;;;;9.52;8.73;;;;;;;;;;5345775;27;20534;-69
2022/06/05 10:51:43;;;;;;;12.05;9.73;;;;;;;;;;5346592;27;20019;-70
2022/06/05 10:54:14;;;;;;;10.65;9.70;;;;;;;;;;5345462;27;20019;-69
2022/06/05 10:56:57;;;;;;;12.63;9.45;;;;;;;;;;5346226;27;20026;-70
2022/06/05 10:59:34;;;;;;;10.93;9.80;;;;;;;;;;5346046;27;20019;-70
2022/06/05 11:02:24;;;;;;;11.55;10.35;;;;;;;;;;5345131;27;20047;-70
2022/06/05 11:05:07;;;;;;;13.38;12.18;;;;;;;;;;5346184;27;20029;-70
2022/06/05 11:08:15;;;;;;;14.82;13.43;;;;;;;;;;5345935;27;20034;-70
2022/06/05 11:14:02;;;;;;;18.30;16.40;;;;;;;;;;5346469;27;20035;-70
2022/06/05 11:16:42;;;;;;;19.90;17.58;;;;;;;;;;5344848;27;20490;-69
2022/06/05 11:19:13;;;;;;;17.92;16.42;;;;;;;;;;5345814;27;20386;-69
2022/06/05 11:21:47;;;;;;;20.30;18.58;;;;;;;;;;5345742;27;20016;-68
2022/06/05 11:24:24;;;;;;;20.90;18.98;;;;;;;;;;5344463;27;20060;-69
2022/06/05 11:27:05;;;;;;;20.63;18.73;;;;;;;;;;5345962;27;20011;-68
2022/06/05 11:29:43;;;;;;;20.67;18.30;;;;;;;;;;5343915;27;20545;-68
2022/06/05 11:32:17;;;;;;;23.15;20.92;;;;;;;;;;5345523;27;20099;-69
2022/06/05 11:35:11;;;;;;;22.95;20.77;;;;;;;;;;5345454;27;20019;-68
2022/06/05 11:37:45;;;;;;;34.05;21.23;;;;;;;;;;5340477;27;20023;-70
2022/06/05 11:40:16;;;;;;;23.40;21.35;;;;;;;;;;5343630;27;20025;-70
2022/06/05 11:43:08;;;;;;;26.75;24.27;;;;;;;;;;5345150;27;20035;-70
2022/06/05 11:45:45;;;;;;;32.38;26.95;;;;;;;;;;5345015;27;20015;-69
2022/06/05 11:48:22;;;;;;;27.55;24.58;;;;;;;;;;5345334;27;20377;-68
2022/06/05 11:51:05;;;;;;;28.75;25.85;;;;;;;;;;5344974;27;20020;-69
2022/06/05 11:53:40;;;;;;;29.17;26.27;;;;;;;;;;5340552;27;20034;-69
2022/06/05 11:56:30;;;;;;;27.75;25.33;;;;;;;;;;5345347;27;20038;-69
2022/06/05 11:59:20;;;;;;;28.63;25.90;;;;;;;;;;5344510;27;20023;-70
2022/06/05 12:01:57;;;;;;;28.70;26.25;;;;;;;;;;5345650;27;20069;-70
2022/06/05 12:04:48;;;;;;;30.77;28.08;;;;;;;;;;5344155;27;20026;-70
2022/06/05 12:07:19;;;;;;;33.47;30.08;;;;;;;;;;5326445;27;20042;-70
2022/06/05 12:09:59;;;;;;;35.92;32.65;;;;;;;;;;5345238;27;20019;-69
2022/06/05 12:12:35;;;;;;;35.13;31.65;;;;;;;;;;5343815;27;20051;-70
2022/06/05 12:15:19;;;;;;;33.28;29.98;;;;;;;;;;5344907;27;20019;-69
2022/06/05 12:18:11;;;;;;;33.10;29.80;;;;;;;;;;5345125;27;20406;-70
2022/06/05 12:20:46;;;;;;;32.80;29.60;;;;;;;;;;5344139;27;20023;-69
2022/06/05 12:23:24;;;;;;;32.90;29.73;;;;;;;;;;5345030;27;20079;-69
2022/06/05 12:25:57;;;;;;;32.28;28.88;;;;;;;;;;5344600;27;20018;-69
2022/06/05 12:28:37;;;;;;;33.08;29.88;;;;;;;;;;5344325;28;20064;-69
2022/06/05 12:31:14;;;;;;;35.70;32.28;;;;;;;;;;5345027;28;20043;-68
2022/06/05 12:33:48;;;;;;;41.35;37.00;;;;;;;;;;5338144;28;20019;-67
2022/06/05 12:36:19;;;;;;;43.05;38.78;;;;;;;;;;5344231;28;20389;-68
2022/06/05 12:38:54;;;;;;;40.17;36.28;;;;;;;;;;5344266;28;20031;-68
2022/06/05 12:41:30;;;;;;;41.22;37.03;;;;;;;;;;5347129;27;20618;-69
2022/06/05 12:44:02;;;;;;;42.67;38.03;;;;;;;;;;5348695;27;20025;-69
2022/06/05 12:46:36;;;;;;;43.63;38.70;;;;;;;;;;5348073;27;20019;-69
2022/06/05 12:49:23;;;;;;;38.38;34.60;;;;;;;;;;5348697;27;20351;-69
2022/06/05 12:52:08;;;;;;;38.30;34.47;;;;;;;;;;5349485;27;20061;-69
2022/06/05 12:54:46;;;;;;;42.13;37.88;;;;;;;;;;5348117;27;20114;-69
2022/06/05 12:57:22;;;;;;;42.78;38.30;;;;;;;;;;5348942;27;20023;-69
2022/06/05 13:00:12;;;;;;;40.88;36.88;;;;;;;;;;5349021;27;20098;-69
2022/06/05 13:02:49;;;;;;;43.10;38.63;;;;;;;;;;5348050;27;20035;-68
2022/06/05 13:05:35;;;;;;;48.35;43.55;;;;;;;;;;5348459;27;20027;-69
2022/06/05 13:08:06;;;;;;;46.85;41.95;;;;;;;;;;5347532;27;20076;-68
2022/06/05 13:10:40;;;;;;;55.00;44.77;;;;;;;;;;5348438;27;20469;-69
2022/06/05 13:13:17;;;;;;;47.60;42.90;;;;;;;;;;5348621;27;20265;-67
2022/06/05 13:16:08;;;;;;;51.35;46.28;;;;;;;;;;5347515;27;20016;-68
2022/06/05 13:18:42;;;;;;;48.03;42.97;;;;;;;;;;5330230;27;20041;-68
2022/06/05 13:21:23;;;;;;;51.08;45.90;;;;;;;;;;5348300;27;20474;-69
2022/06/05 13:24:12;;;;;;;50.05;44.97;;;;;;;;;;5347538;27;20023;-69
2022/06/05 13:26:50;;;;;;;51.53;45.92;;;;;;;;;;5348001;27;20023;-69
2022/06/05 13:29:37;;;;;;;50.90;45.47;;;;;;;;;;5346951;27;20404;-69
2022/06/05 13:32:13;;;;;;;55.33;49.33;;;;;;;;;;5348118;27;20034;-69
2022/06/05 13:34:50;;;;;;;53.67;47.47;;;;;;;;;;5348287;27;20015;-69
2022/06/05 13:37:27;;;;;;;49.03;44.20;;;;;;;;;;5346958;27;20465;-70
2022/06/05 13:40:06;;;;;;;45.28;41.05;;;;;;;;;;5348601;27;20083;-69
2022/06/05 13:42:38;;;;;;;41.22;37.33;;;;;;;;;;5348279;27;20308;-69
2022/06/05 13:45:19;;;;;;;43.85;39.42;;;;;;;;;;5347371;27;20068;-70
2022/06/05 13:48:13;;;;;;;43.00;38.70;;;;;;;;;;5347898;27;20034;-69
2022/06/05 13:51:07;;;;;;;45.42;39.90;;;;;;;;;;5346928;27;20075;-70
2022/06/05 13:53:40;;;;;;;53.60;40.88;;;;;;;;;;5347393;27;20027;-69
2022/06/05 13:56:17;;;;;;;49.65;43.17;;;;;;;;;;5347385;27;20079;-69
2022/06/05 13:58:51;;;;;;;55.38;46.03;;;;;;;;;;5346788;27;20019;-68
2022/06/05 14:01:22;;;;;;;49.80;43.22;;;;;;;;;;5346997;27;20057;-70
2022/06/05 14:03:57;;;;;;;47.47;42.38;;;;;;;;;;5346926;27;20451;-70
2022/06/05 14:06:40;;;;;;;49.38;43.85;;;;;;;;;;5346971;27;20019;-69
2022/06/05 14:09:29;;;;;;;58.47;47.85;;;;;;;;;;5347458;27;20022;-70
2022/06/05 14:12:00;;;;;;;61.28;50.88;;;;;;;;;;5346864;27;20466;-69
2022/06/05 14:14:49;;;;;;;55.63;45.60;;;;;;;;;;5346763;27;20026;-71
2022/06/05 14:17:28;;;;;;;48.67;41.85;;;;;;;;;;5346762;27;20122;-69
2022/06/05 14:19:59;;;;;;;;;;;;;;;;;;5347347;27;20476;-69
2022/06/05 14:22:40;;;;;;;43.53;36.05;;;;;;;;;;5346659;27;19911;-69
2022/06/05 14:25:19;;;;;;;47.10;36.15;;;;;;;;;;5346320;27;20046;-68
2022/06/05 14:27:50;;;;;;;;;;;;;;;;;;5347664;27;20076;-69
2022/06/05 14:30:24;;;;;;;37.78;31.73;;;;;;;;;;5346658;27;20251;-69
2022/06/05 14:32:55;;;;;;;34.28;30.88;;;;;;;;;;5346196;27;20016;-69
2022/06/05 14:35:28;;;;;;;37.83;31.90;;;;;;;;;;5346399;27;20500;-69
2022/06/05 14:38:16;;;;;;;39.22;31.95;;;;;;;;;;5346917;27;20068;-67
2022/06/05 14:40:54;;;;;;;49.13;32.53;;;;;;;;;;5346260;27;20023;-67
2022/06/05 14:43:28;;;;;;;45.88;37.05;;;;;;;;;;5343381;27;20034;-67
2022/06/05 14:46:05;;;;;;;43.65;36.80;;;;;;;;;;5345888;27;20420;-69
2022/06/05 14:48:39;;;;;;;50.95;39.20;;;;;;;;;;5346419;27;20031;-68
2022/06/05 14:51:19;;;;;;;68.90;44.83;;;;;;;;;;5346262;27;20068;-67
2022/06/05 14:53:50;;;;;;;53.70;43.15;;;;;;;;;;5345728;27;20015;-68
2022/06/05 14:59:30;;;;;;;;;;;;;;;;;;5346636;27;20253;-67
2022/06/05 15:02:01;;;;;;;41.22;36.95;;;;;;;;;;5345717;27;20254;-67
2022/06/05 15:04:40;;;;;;;50.45;41.63;;;;;;;;;;5345880;27;20023;-67
2022/06/05 15:07:15;;;;;;;53.03;43.55;;;;;;;;;;5345277;27;20023;-67
2022/06/05 15:10:10;;;;;;;59.10;47.50;;;;;;;;;;5346151;27;20366;-67
2022/06/05 15:12:44;;;;;;;59.05;48.60;;;;;;;;;;5298147;27;20118;-67
2022/06/05 15:15:20;;;;;;;49.88;44.88;;;;;;;;;;5345111;27;20027;-67
2022/06/05 15:17:53;;;;;;;62.42;52.22;;;;;;;;;;5345873;27;20047;-67
2022/06/05 15:20:27;;;;;;;57.45;51.22;;;;;;;;;;5345654;27;20015;-68
2022/06/05 15:23:07;;;;;;;57.53;50.97;;;;;;;;;;5345221;27;20595;-71
2022/06/05 15:25:54;;;;;;;61.63;52.05;;;;;;;;;;5345791;27;20221;-69
2022/06/05 15:28:40;;;;;;;54.10;48.25;;;;;;;;;;5344703;27;20488;-68
2022/06/05 15:31:30;;;;;;;54.13;47.33;;;;;;;;;;5345539;27;20007;-68
2022/06/05 15:34:17;;;;;;;53.13;47.53;;;;;;;;;;5345517;27;20388;-68
2022/06/05 15:37:11;;;;;;;57.45;45.05;;;;;;;;;;5344813;27;20097;-67
2022/06/05 15:39:49;;;;;;;53.42;45.83;;;;;;;;;;5297311;27;20362;-67
2022/06/05 15:42:34;;;;;;;54.20;47.50;;;;;;;;;;5344035;27;20420;-68
2022/06/05 15:45:31;;;;;;;50.78;45.42;;;;;;;;;;5345430;27;20348;-69
2022/06/05 15:48:02;;;;;;;51.83;46.20;;;;;;;;;;5305527;27;20035;-68
2022/06/05 15:50:36;;;;;;;49.50;42.90;;;;;;;;;;5344391;27;20098;-68